createdAt,value
2019-01-28T00:01:53.308Z,3.80
2019-01-28T00:04:20.425Z,3.72
2019-01-28T00:06:47.542Z,3.80
2019-01-28T00:09:14.583Z,3.82
2019-01-28T00:11:42.706Z,3.78
2019-01-28T00:14:09.741Z,3.86
2019-01-28T00:16:36.807Z,3.82
2019-01-28T00:19:03.991Z,3.97
2019-01-28T00:21:31.034Z,3.86
2019-01-28T00:23:58.160Z,3.88
2019-01-28T00:26:25.330Z,3.84
2019-01-28T00:28:52.367Z,3.85
2019-01-28T00:31:19.553Z,3.82
2019-01-28T00:33:46.641Z,3.84
2019-01-28T00:36:13.741Z,3.85
2019-01-28T00:38:40.806Z,3.89
2019-01-28T00:41:08.079Z,3.75
2019-01-28T00:43:35.161Z,3.81
2019-01-28T00:46:02.242Z,3.69
2019-01-28T00:48:29.289Z,3.66
2019-01-28T00:50:56.378Z,3.73
2019-01-28T00:53:23.408Z,3.76
2019-01-28T00:55:50.488Z,3.61
2019-01-28T00:58:17.844Z,3.54
2019-01-28T01:00:44.927Z,3.62
2019-01-28T01:03:11.996Z,3.48
2019-01-28T01:05:39.372Z,3.54
2019-01-28T01:08:06.423Z,3.55
2019-01-28T01:10:34.622Z,3.60
2019-01-28T01:13:01.697Z,3.53
2019-01-28T01:15:28.733Z,3.45
2019-01-28T01:17:55.980Z,3.58
2019-01-28T01:20:23.280Z,3.53
2019-01-28T01:22:53.107Z,3.54
2019-01-28T01:25:20.131Z,3.54
2019-01-28T01:27:49.023Z,3.48
2019-01-28T01:30:16.683Z,3.54
2019-01-28T01:32:43.717Z,3.44
2019-01-28T01:35:11.177Z,3.37
2019-01-28T01:37:38.336Z,3.41
2019-01-28T01:40:07.579Z,3.47
2019-01-28T01:42:34.651Z,3.25
2019-01-28T01:45:01.712Z,3.20
2019-01-28T01:47:28.761Z,3.23
2019-01-28T01:49:55.837Z,3.21
2019-01-28T01:52:22.875Z,3.18
2019-01-28T01:54:49.946Z,3.15
2019-01-28T01:57:17.091Z,3.09
2019-01-28T01:59:44.187Z,2.99
2019-01-28T02:02:11.501Z,3.03
2019-01-28T02:04:38.597Z,3.03
2019-01-28T02:07:05.639Z,2.90
2019-01-28T02:09:32.662Z,2.93
2019-01-28T02:11:59.758Z,3.01
2019-01-28T02:14:26.806Z,2.87
2019-01-28T02:16:53.864Z,2.78
2019-01-28T02:19:20.955Z,2.79
2019-01-28T02:21:48.061Z,2.71
2019-01-28T02:24:15.146Z,2.62
2019-01-28T02:26:42.223Z,2.54
2019-01-28T02:29:09.251Z,2.55
2019-01-28T02:31:36.367Z,2.51
2019-01-28T02:34:03.756Z,2.44
2019-01-28T02:36:30.821Z,2.37
2019-01-28T02:38:57.850Z,2.42
2019-01-28T02:41:24.926Z,2.40
2019-01-28T02:43:51.968Z,2.34
2019-01-28T02:46:19.070Z,2.39
2019-01-28T02:48:47.954Z,2.36
2019-01-28T02:51:15.000Z,2.47
2019-01-28T02:53:42.059Z,2.51
2019-01-28T02:56:09.137Z,2.51
2019-01-28T02:58:36.188Z,2.52
2019-01-28T03:01:03.588Z,2.44
2019-01-28T03:03:30.714Z,2.56
2019-01-28T03:05:57.775Z,2.58
2019-01-28T03:08:24.837Z,2.61
2019-01-28T03:10:51.924Z,2.63
2019-01-28T03:13:18.977Z,2.65
2019-01-28T03:15:46.028Z,2.67
2019-01-28T03:18:13.218Z,2.71
2019-01-28T03:20:40.300Z,2.69
2019-01-28T03:23:10.061Z,2.67
2019-01-28T03:25:39.372Z,2.65
2019-01-28T03:28:06.408Z,2.69
2019-01-28T03:30:33.471Z,2.69
2019-01-28T03:33:00.722Z,2.71
2019-01-28T03:35:27.770Z,2.70
2019-01-28T03:37:54.806Z,2.58
2019-01-28T03:40:21.864Z,2.56
2019-01-28T03:42:49.492Z,2.63
2019-01-28T03:45:17.897Z,2.64
2019-01-28T03:47:45.089Z,2.67
2019-01-28T03:50:13.820Z,2.65
2019-01-28T03:52:41.100Z,2.63
2019-01-28T03:55:08.944Z,2.64
2019-01-28T03:57:35.977Z,2.53
2019-01-28T04:00:05.539Z,2.54
2019-01-28T04:02:32.714Z,2.52
2019-01-28T04:04:59.773Z,2.40
2019-01-28T04:07:59.536Z,2.43
2019-01-28T04:10:26.582Z,2.37
2019-01-28T04:12:53.605Z,2.26
2019-01-28T04:15:22.920Z,2.23
2019-01-28T04:17:50.113Z,2.28
2019-01-28T04:20:18.119Z,2.25
2019-01-28T04:22:45.222Z,2.31
2019-01-28T04:25:13.113Z,2.30
2019-01-28T04:28:17.418Z,2.36
2019-01-28T04:30:44.485Z,2.32
2019-01-28T04:33:11.725Z,2.32
2019-01-28T04:35:38.837Z,2.39
2019-01-28T04:38:05.920Z,2.52
2019-01-28T04:40:32.961Z,2.44
2019-01-28T04:43:00.023Z,2.41
2019-01-28T04:45:27.068Z,2.42
2019-01-28T04:47:54.434Z,2.35
2019-01-28T04:50:21.591Z,2.37
2019-01-28T04:52:49.027Z,2.41
2019-01-28T04:55:17.486Z,2.41
2019-01-28T04:57:44.662Z,2.50
2019-01-28T05:00:22.746Z,2.52
2019-01-28T05:05:31.317Z,2.55
2019-01-28T05:07:58.354Z,2.59
2019-01-28T05:10:25.395Z,2.63
2019-01-28T05:12:52.542Z,2.57
2019-01-28T05:15:20.399Z,2.57
2019-01-28T05:17:47.463Z,2.60
2019-01-28T05:20:16.087Z,2.62
2019-01-28T05:22:43.127Z,2.64
2019-01-28T05:25:11.510Z,2.68
2019-01-28T05:27:38.678Z,2.74
2019-01-28T05:30:08.524Z,2.83
2019-01-28T05:32:35.579Z,2.85
2019-01-28T05:35:03.417Z,2.81
2019-01-28T05:37:30.536Z,2.82
2019-01-28T05:39:57.675Z,2.85
2019-01-28T05:42:24.735Z,2.94
2019-01-28T05:44:51.914Z,3.00
2019-01-28T05:47:18.985Z,3.01
2019-01-28T05:49:46.084Z,3.04
2019-01-28T05:52:13.376Z,3.05
2019-01-28T05:54:40.463Z,3.13
2019-01-28T05:57:08.680Z,3.15
2019-01-28T05:59:42.500Z,3.17
2019-01-28T06:02:09.592Z,3.20
2019-01-28T06:04:36.735Z,3.19
2019-01-28T06:07:03.975Z,3.17
2019-01-28T06:09:31.030Z,3.25
2019-01-28T06:11:58.313Z,3.25
2019-01-28T06:14:51.149Z,3.30
2019-01-28T06:17:18.412Z,3.36
2019-01-28T06:19:45.480Z,3.31
2019-01-28T06:22:12.588Z,3.32
2019-01-28T06:24:39.716Z,3.42
2019-01-28T06:27:06.725Z,3.43
2019-01-28T06:29:33.835Z,3.48
2019-01-28T06:32:02.804Z,3.56
2019-01-28T06:34:29.961Z,3.59
2019-01-28T06:36:57.231Z,3.61
2019-01-28T06:39:24.282Z,3.58
2019-01-28T06:41:51.330Z,3.58
2019-01-28T06:44:18.435Z,3.62
2019-01-28T06:46:45.535Z,3.63
2019-01-28T06:49:12.649Z,3.67
2019-01-28T06:51:39.725Z,3.64
2019-01-28T06:54:06.991Z,3.68
2019-01-28T06:56:34.063Z,3.67
2019-01-28T06:59:01.190Z,3.73
2019-01-28T07:01:28.273Z,3.70
2019-01-28T07:03:55.393Z,3.71
2019-01-28T07:06:22.547Z,3.74
2019-01-28T07:08:49.655Z,3.75
2019-01-28T07:11:18.299Z,3.77
2019-01-28T07:13:45.379Z,3.81
2019-01-28T07:16:12.501Z,3.81
2019-01-28T07:18:39.574Z,3.86
2019-01-28T07:21:06.669Z,3.94
2019-01-28T07:23:33.796Z,3.95
2019-01-28T07:26:00.836Z,3.97
2019-01-28T07:28:27.881Z,3.98
2019-01-28T07:30:54.997Z,4.05
2019-01-28T07:33:22.058Z,4.11
2019-01-28T07:35:50.210Z,4.15
2019-01-28T07:38:17.306Z,4.19
2019-01-28T07:40:44.345Z,4.26
2019-01-28T07:43:11.435Z,4.28
2019-01-28T07:45:45.001Z,4.36
2019-01-28T07:48:07.592Z,4.44
2019-01-28T07:50:34.794Z,4.46
2019-01-28T07:53:02.037Z,4.49
2019-01-28T07:55:30.338Z,4.49
2019-01-28T07:57:57.412Z,4.53
2019-01-28T08:00:25.784Z,4.56
2019-01-28T08:02:52.970Z,4.56
2019-01-28T08:05:20.229Z,4.56
2019-01-28T08:07:47.352Z,4.59
2019-01-28T08:10:15.629Z,4.59
2019-01-28T08:12:42.972Z,4.60
2019-01-28T08:15:12.581Z,4.62
2019-01-28T08:17:39.633Z,4.64
2019-01-28T08:20:11.536Z,4.68
2019-01-28T08:22:39.897Z,4.65
2019-01-28T08:25:08.953Z,4.66
2019-01-28T08:27:36.109Z,4.62
2019-01-28T08:30:05.329Z,4.59
2019-01-28T08:32:32.396Z,4.69
2019-01-28T08:34:59.424Z,4.68
2019-01-28T08:37:26.505Z,4.67
2019-01-28T08:39:53.555Z,4.65
2019-01-28T08:42:20.602Z,4.68
2019-01-28T08:44:47.656Z,4.62
2019-01-28T08:47:14.772Z,4.62
2019-01-28T08:49:41.815Z,4.58
2019-01-28T08:52:08.904Z,4.59
2019-01-28T08:54:36.037Z,4.57
2019-01-28T08:59:44.761Z,4.56
2019-01-28T09:02:11.812Z,4.55
2019-01-28T09:04:40.067Z,4.46
2019-01-28T09:07:07.179Z,4.41
2019-01-28T09:09:34.298Z,4.36
2019-01-28T09:12:01.354Z,4.28
2019-01-28T09:14:28.441Z,4.31
2019-01-28T09:16:55.581Z,4.24
2019-01-28T09:19:22.817Z,4.20
2019-01-28T09:21:50.043Z,4.20
2019-01-28T09:24:17.135Z,4.18
2019-01-28T09:26:44.247Z,4.20
2019-01-28T09:29:11.332Z,4.18
2019-01-28T09:31:38.390Z,4.23
2019-01-28T09:34:05.532Z,4.22
2019-01-28T09:36:32.621Z,4.21
2019-01-28T09:38:59.674Z,4.22
2019-01-28T09:41:26.793Z,4.19
2019-01-28T09:43:53.894Z,4.17
2019-01-28T09:46:21.020Z,4.17
2019-01-28T09:48:48.162Z,4.16
2019-01-28T09:51:15.333Z,4.18
2019-01-28T09:53:42.426Z,4.15
2019-01-28T09:56:09.658Z,4.15
2019-01-28T09:58:36.810Z,4.13
2019-01-28T10:01:04.168Z,4.12
2019-01-28T10:03:31.272Z,4.12
2019-01-28T10:05:58.305Z,4.14
2019-01-28T10:08:25.347Z,4.13
2019-01-28T10:10:52.615Z,4.16
2019-01-28T10:13:19.699Z,4.13
2019-01-28T10:15:46.772Z,4.10
2019-01-28T10:18:13.869Z,4.13
2019-01-28T10:20:44.724Z,4.13
2019-01-28T10:23:12.112Z,4.16
2019-01-28T10:25:40.049Z,4.14
2019-01-28T10:28:07.162Z,4.17
2019-01-28T10:30:36.449Z,4.17
2019-01-28T10:33:04.949Z,4.18
2019-01-28T10:35:32.325Z,4.21
2019-01-28T10:37:59.678Z,4.16
2019-01-28T10:40:29.078Z,4.18
2019-01-28T10:42:56.528Z,4.16
2019-01-28T10:45:23.682Z,4.16
2019-01-28T10:47:51.521Z,4.15
2019-01-28T10:50:19.045Z,4.17
2019-01-28T10:52:46.096Z,4.16
2019-01-28T10:55:14.096Z,4.22
2019-01-28T10:57:41.425Z,4.24
2019-01-28T11:00:19.256Z,4.25
2019-01-28T11:02:46.440Z,4.25
2019-01-28T11:05:13.720Z,4.29
2019-01-28T11:07:40.887Z,4.28
2019-01-28T11:10:09.570Z,4.28
2019-01-28T11:12:36.651Z,4.30
2019-01-28T11:15:05.092Z,4.36
2019-01-28T11:17:32.133Z,4.38
2019-01-28T11:19:59.257Z,4.43
2019-01-28T11:22:26.457Z,4.43
2019-01-28T11:24:53.598Z,4.47
2019-01-28T11:27:20.612Z,4.44
2019-01-28T11:29:47.697Z,4.45
2019-01-28T11:32:14.800Z,4.43
2019-01-28T11:34:41.930Z,4.41
2019-01-28T11:37:09.077Z,4.44
2019-01-28T11:39:36.203Z,4.43
2019-01-28T11:42:03.836Z,4.40
2019-01-28T11:44:32.194Z,4.35
2019-01-28T11:47:00.567Z,4.32
2019-01-28T11:49:27.709Z,4.29
2019-01-28T11:51:54.862Z,4.25
2019-01-28T11:54:21.942Z,4.21
2019-01-28T11:56:50.825Z,4.17
2019-01-28T11:59:17.927Z,4.15
2019-01-28T12:01:46.138Z,4.17
2019-01-28T12:04:13.268Z,4.21
2019-01-28T12:06:40.358Z,4.25
2019-01-28T12:09:08.865Z,4.27
2019-01-28T12:11:36.039Z,4.28
2019-01-28T12:14:03.581Z,4.27
2019-01-28T12:16:30.625Z,4.30
2019-01-28T12:18:59.354Z,4.31
2019-01-28T12:21:26.607Z,4.36
2019-01-28T12:23:53.691Z,4.35
2019-01-28T12:26:20.761Z,4.36
2019-01-28T12:28:47.940Z,4.43
2019-01-28T12:31:14.996Z,4.48
2019-01-28T12:33:42.142Z,4.56
2019-01-28T12:36:09.213Z,4.57
2019-01-28T12:38:36.262Z,4.60
2019-01-28T12:41:03.571Z,4.64
2019-01-28T12:43:30.624Z,4.63
2019-01-28T12:45:57.782Z,4.59
2019-01-28T12:48:24.902Z,4.55
2019-01-28T12:50:51.968Z,4.51
2019-01-28T12:53:19.080Z,4.43
2019-01-28T12:55:46.145Z,4.38
2019-01-28T12:58:13.192Z,4.37
2019-01-28T13:00:42.796Z,4.33
2019-01-28T13:03:10.814Z,4.31
2019-01-28T13:05:38.596Z,4.31
2019-01-28T13:08:05.688Z,4.33
2019-01-28T13:10:32.891Z,4.37
2019-01-28T13:12:59.932Z,4.39
2019-01-28T13:15:27.488Z,4.45
2019-01-28T13:17:55.466Z,4.47
2019-01-28T13:20:22.894Z,4.49
2019-01-28T13:22:50.111Z,4.48
2019-01-28T13:25:18.409Z,4.49
2019-01-28T13:27:45.520Z,4.48
2019-01-28T13:30:15.614Z,4.47
2019-01-28T13:32:43.022Z,4.47
2019-01-28T13:35:10.612Z,4.48
2019-01-28T13:37:37.685Z,4.47
2019-01-28T13:40:05.179Z,4.47
2019-01-28T13:42:32.383Z,4.52
2019-01-28T13:44:59.468Z,4.55
2019-01-28T13:47:26.564Z,4.55
2019-01-28T13:49:53.705Z,4.57
2019-01-28T13:52:20.772Z,4.60
2019-01-28T13:54:48.322Z,4.60
2019-01-28T13:57:15.359Z,4.62
2019-01-28T13:59:42.467Z,4.65
2019-01-28T14:02:09.822Z,4.67
2019-01-28T14:04:36.916Z,4.72
2019-01-28T14:07:04.081Z,4.74
2019-01-28T14:09:31.177Z,4.77
2019-01-28T14:11:58.241Z,4.79
2019-01-28T14:14:25.339Z,4.81
2019-01-28T14:16:52.438Z,4.84
2019-01-28T14:19:19.495Z,4.89
2019-01-28T14:21:46.601Z,4.95
2019-01-28T14:24:13.773Z,5.18
2019-01-28T14:26:40.876Z,5.42
2019-01-28T14:29:07.950Z,5.46
2019-01-28T14:31:36.191Z,5.62
2019-01-28T14:34:03.458Z,5.68
2019-01-28T14:36:42.759Z,5.65
2019-01-28T14:39:13.740Z,5.68
2019-01-28T14:41:40.080Z,5.69
2019-01-28T14:44:07.162Z,5.67
2019-01-28T14:46:34.265Z,5.66
2019-01-28T14:49:01.342Z,5.62
2019-01-28T14:51:28.464Z,5.57
2019-01-28T14:53:56.046Z,5.55
2019-01-28T14:56:23.099Z,5.51
2019-01-28T14:58:50.197Z,5.52
2019-01-28T15:01:19.178Z,5.49
2019-01-28T15:03:46.240Z,5.52
2019-01-28T15:06:13.466Z,5.51
2019-01-28T15:08:40.612Z,5.49
2019-01-28T15:11:07.673Z,5.56
2019-01-28T15:13:34.735Z,5.57
2019-01-28T15:16:01.828Z,5.50
2019-01-28T15:18:28.878Z,5.44
2019-01-28T15:20:55.929Z,5.38
2019-01-28T15:23:23.224Z,5.36
2019-01-28T15:26:09.078Z,5.34
2019-01-28T15:28:38.070Z,5.31
2019-01-28T15:31:06.160Z,5.31
2019-01-28T15:33:33.313Z,5.33
2019-01-28T15:36:00.413Z,5.38
2019-01-28T15:38:27.678Z,5.34
2019-01-28T15:40:54.749Z,5.28
2019-01-28T15:43:21.932Z,5.27
2019-01-28T15:45:48.983Z,5.30
2019-01-28T15:48:16.106Z,5.26
2019-01-28T15:50:43.319Z,5.22
2019-01-28T15:53:10.371Z,5.14
2019-01-28T15:55:39.649Z,5.08
2019-01-28T15:58:07.614Z,5.00
2019-01-28T16:00:37.047Z,4.97
2019-01-28T16:03:06.211Z,4.88
2019-01-28T16:05:33.274Z,4.79
2019-01-28T16:08:00.365Z,4.76
2019-01-28T16:10:27.649Z,4.70
2019-01-28T16:12:54.870Z,4.63
2019-01-28T16:15:25.331Z,4.56
2019-01-28T16:17:52.420Z,4.54
2019-01-28T16:20:19.502Z,4.48
2019-01-28T16:22:46.913Z,4.52
2019-01-28T16:25:14.275Z,4.47
2019-01-28T16:27:41.337Z,4.43
2019-01-28T16:30:12.469Z,4.34
2019-01-28T16:32:39.561Z,4.32
2019-01-28T16:35:07.182Z,4.35
2019-01-28T16:37:34.620Z,4.35
2019-01-28T16:40:01.680Z,4.27
2019-01-28T16:42:28.736Z,4.15
2019-01-28T16:44:55.897Z,4.07
2019-01-28T16:47:22.952Z,4.02
2019-01-28T16:49:50.044Z,3.96
2019-01-28T16:52:17.137Z,3.91
2019-01-28T16:54:44.263Z,3.86
2019-01-28T16:57:11.434Z,3.77
2019-01-28T16:59:38.552Z,3.71
2019-01-28T17:02:07.486Z,3.62
2019-01-28T17:04:34.542Z,3.50
2019-01-28T17:07:02.625Z,3.40
2019-01-28T17:09:29.910Z,3.35
2019-01-28T17:11:56.966Z,3.28
2019-01-28T17:14:24.115Z,3.24
2019-01-28T17:16:51.185Z,3.22
2019-01-28T17:19:18.253Z,3.16
2019-01-28T17:21:45.474Z,3.14
2019-01-28T17:24:12.682Z,3.05
2019-01-28T17:26:39.713Z,2.96
2019-01-28T17:29:06.781Z,2.91
2019-01-28T17:31:34.077Z,2.87
2019-01-28T17:34:01.344Z,2.86
2019-01-28T17:36:28.434Z,2.79
2019-01-28T17:39:50.926Z,2.71
2019-01-28T17:42:18.037Z,2.66
2019-01-28T17:44:45.121Z,2.58
2019-01-28T17:47:12.257Z,2.55
2019-01-28T17:49:40.377Z,2.54
2019-01-28T17:52:07.825Z,2.55
2019-01-28T17:54:36.027Z,2.52
2019-01-28T17:57:03.147Z,2.50
2019-01-28T17:59:30.236Z,2.39
2019-01-28T18:01:57.342Z,2.35
2019-01-28T18:04:25.796Z,2.33
2019-01-28T18:07:05.375Z,2.32
2019-01-28T18:09:35.140Z,2.34
2019-01-28T18:12:02.402Z,2.25
2019-01-28T18:14:29.559Z,2.22
2019-01-28T18:16:56.695Z,2.21
2019-01-28T18:19:23.865Z,2.19
2019-01-28T18:21:50.941Z,2.17
2019-01-28T18:24:18.051Z,2.16
2019-01-28T18:26:45.261Z,2.14
2019-01-28T18:29:12.359Z,2.15
2019-01-28T18:31:39.421Z,2.14
2019-01-28T18:34:06.862Z,2.13
2019-01-28T18:36:33.956Z,2.11
2019-01-28T18:39:01.158Z,2.08
2019-01-28T18:41:28.261Z,2.07
2019-01-28T18:43:55.376Z,2.11
2019-01-28T18:46:22.451Z,2.13
2019-01-28T18:49:08.296Z,2.16
2019-01-28T18:51:35.362Z,2.17
2019-01-28T18:54:02.433Z,2.18
2019-01-28T18:56:29.690Z,2.09
2019-01-28T18:58:56.778Z,2.09
2019-01-28T19:01:23.860Z,2.08
2019-01-28T19:03:52.108Z,2.07
2019-01-28T19:06:39.838Z,2.05
2019-01-28T19:09:12.854Z,2.05
2019-01-28T19:12:05.567Z,2.02
2019-01-28T19:14:54.971Z,1.99
2019-01-28T19:17:36.621Z,1.98
2019-01-28T19:20:27.745Z,1.98
2019-01-28T19:22:54.832Z,1.97
2019-01-28T19:25:21.900Z,1.97
2019-01-28T19:27:48.951Z,1.91
2019-01-28T19:30:19.500Z,1.84
2019-01-28T19:32:46.707Z,1.81
2019-01-28T19:35:13.892Z,1.73
2019-01-28T19:37:41.124Z,1.71
2019-01-28T19:40:09.938Z,1.79
2019-01-28T19:42:37.217Z,1.86
2019-01-28T19:45:07.660Z,1.80
2019-01-28T19:47:34.721Z,1.78
2019-01-28T19:50:01.775Z,1.74
2019-01-28T19:52:28.900Z,1.66
2019-01-28T19:54:55.986Z,1.62
2019-01-28T19:57:23.059Z,1.62
2019-01-28T19:59:50.171Z,1.52
2019-01-28T20:02:54.990Z,1.50
2019-01-28T20:05:22.288Z,1.49
2019-01-28T20:07:49.363Z,1.48
2019-01-28T20:10:16.451Z,1.50
2019-01-28T20:12:43.617Z,1.49
2019-01-28T20:15:12.384Z,1.48
2019-01-28T20:17:39.438Z,1.45
2019-01-28T20:20:08.587Z,1.43
2019-01-28T20:22:35.718Z,1.40
2019-01-28T20:25:07.934Z,1.37
2019-01-28T20:27:35.146Z,1.39
2019-01-28T20:30:03.439Z,1.47
2019-01-28T20:32:32.333Z,1.57
2019-01-28T20:34:59.642Z,1.57
2019-01-28T20:37:28.537Z,1.56
2019-01-28T20:39:55.649Z,1.55
2019-01-28T20:42:22.773Z,1.54
2019-01-28T20:44:50.051Z,1.52
2019-01-28T20:47:17.177Z,1.52
2019-01-28T20:49:44.255Z,1.56
2019-01-28T20:52:11.489Z,1.57
2019-01-28T20:54:38.687Z,1.53
2019-01-28T20:57:06.145Z,1.53
2019-01-28T20:59:33.221Z,1.54
2019-01-28T21:02:00.452Z,1.54
2019-01-28T21:04:27.591Z,1.52
2019-01-28T21:06:54.852Z,1.46
2019-01-28T21:09:21.924Z,1.45
2019-01-28T21:11:49.125Z,1.44
2019-01-28T21:14:16.195Z,1.43
2019-01-28T21:16:43.294Z,1.38
2019-01-28T21:19:10.476Z,1.35
2019-01-28T21:21:42.068Z,1.34
2019-01-28T21:24:06.688Z,1.31
2019-01-28T21:26:33.787Z,1.26
2019-01-28T21:29:19.174Z,1.32
2019-01-28T21:31:46.404Z,1.34
2019-01-28T21:34:13.517Z,1.33
2019-01-28T21:36:45.809Z,1.34
2019-01-28T21:39:14.507Z,1.28
2019-01-28T21:41:41.623Z,1.28
2019-01-28T21:44:08.706Z,1.27
2019-01-28T21:46:35.823Z,1.28
2019-01-28T21:49:03.159Z,1.27
2019-01-28T21:51:30.241Z,1.31
2019-01-28T21:53:57.325Z,1.33
2019-01-28T21:56:24.488Z,1.30
2019-01-28T21:58:51.555Z,1.32
2019-01-28T22:01:18.700Z,1.32
2019-01-28T22:03:45.920Z,1.36
2019-01-28T22:06:14.600Z,1.38
2019-01-28T22:08:42.193Z,1.35
2019-01-28T22:11:09.316Z,1.34
2019-01-28T22:13:36.395Z,1.39
2019-01-28T22:16:04.218Z,1.44
2019-01-28T22:18:31.362Z,1.48
2019-01-28T22:20:58.609Z,1.47
2019-01-28T22:23:25.701Z,1.48
2019-01-28T22:26:11.407Z,1.49
2019-01-28T22:28:38.610Z,1.46
2019-01-28T22:31:05.651Z,1.47
2019-01-28T22:33:32.744Z,1.46
2019-01-28T22:35:59.835Z,1.44
2019-01-28T22:38:26.889Z,1.46
2019-01-28T22:40:53.990Z,1.53
2019-01-28T22:43:21.137Z,1.55
2019-01-28T22:45:48.311Z,1.57
2019-01-28T22:48:16.138Z,1.58
2019-01-28T22:50:43.212Z,1.59
2019-01-28T22:53:10.284Z,1.54
2019-01-28T22:55:37.370Z,1.57
2019-01-28T22:58:04.422Z,1.54
2019-01-28T23:00:49.341Z,1.49
2019-01-28T23:03:17.980Z,1.50
2019-01-28T23:05:45.163Z,1.52
2019-01-28T23:08:12.396Z,1.46
2019-01-28T23:10:39.589Z,1.50
2019-01-28T23:13:06.990Z,1.48
2019-01-28T23:15:34.073Z,1.48
2019-01-28T23:18:01.146Z,1.49
2019-01-28T23:20:28.308Z,1.51
2019-01-28T23:22:55.395Z,1.47
2019-01-28T23:25:22.458Z,1.38
2019-01-28T23:27:49.498Z,1.35
2019-01-28T23:30:17.115Z,1.32
2019-01-28T23:32:44.345Z,1.28
2019-01-28T23:35:17.704Z,1.22
2019-01-28T23:37:46.120Z,1.20
2019-01-28T23:40:13.328Z,1.22
2019-01-28T23:42:40.917Z,1.23
2019-01-28T23:45:08.158Z,1.20
2019-01-28T23:47:35.222Z,1.26
2019-01-28T23:50:02.574Z,1.21
2019-01-28T23:52:31.493Z,1.22
2019-01-28T23:54:58.543Z,1.20
2019-01-28T23:57:25.601Z,1.16
2019-01-28T23:59:54.448Z,1.25
